Time;durP1;ratioP1;P1;durP2;ratioP2;P2;SDS_P1;SDS_P2;PMS_P1;PMS_P2;Temp;Humidity;BMP_temperature;BMP_pressure;BME280_temperature;BME280_humidity;BME280_pressure;Samples;Min_cycle;Max_cycle;Signal;HPM_P1;HPM_P2
2023/08/21 00:01:28;;;;;;;13.65;12.27;;;;;;;28.94;50.65;100072.59;4318278;33;34483;-67
2023/08/21 00:03:56;;;;;;;14.57;13.07;;;;;;;28.93;50.57;100076.44;4304716;33;33399;-67
2023/08/21 00:06:23;;;;;;;15.82;14.13;;;;;;;28.94;50.64;100077.25;4304641;33;33666;-67
2023/08/21 00:08:51;;;;;;;15.80;14.20;;;;;;;28.92;50.67;100071.19;4317987;33;33484;-67
2023/08/21 00:11:18;;;;;;;15.43;13.80;;;;;;;28.89;50.63;100071.69;4317979;33;33853;-68
2023/08/21 00:13:48;;;;;;;16.33;14.68;;;;;;;28.90;50.62;100074.19;4317822;33;33676;-67
2023/08/21 00:16:19;;;;;;;14.87;13.48;;;;;;;28.89;50.65;100080.78;4318054;33;34775;-67
2023/08/21 00:18:47;;;;;;;15.88;14.18;;;;;;;28.88;50.64;100070.06;4317746;33;33510;-67
2023/08/21 00:21:14;;;;;;;15.40;13.77;;;;;;;28.86;50.65;100081.28;4318123;33;34588;-67
2023/08/21 00:23:42;;;;;;;15.55;12.88;;;;;;;28.86;50.68;100081.28;4317725;33;34725;-68
2023/08/21 00:26:09;;;;;;;15.05;13.52;;;;;;;28.84;50.67;100080.72;4317720;33;33816;-67
2023/08/21 00:28:37;;;;;;;17.10;14.57;;;;;;;28.85;50.65;100078.78;4304632;33;32997;-68
2023/08/21 00:31:05;;;;;;;16.62;14.93;;;;;;;28.84;50.63;100079.88;4311277;33;33859;-67
2023/08/21 00:33:33;;;;;;;16.02;14.43;;;;;;;28.82;50.63;100074.66;4290040;33;34845;-67
2023/08/21 00:36:01;;;;;;;15.18;13.70;;;;;;;28.82;50.65;100074.66;4303387;33;34551;-67
2023/08/21 00:38:28;;;;;;;15.30;13.75;;;;;;;28.81;50.61;100081.22;4303343;33;33247;-67
2023/08/21 00:40:57;;;;;;;15.80;14.20;;;;;;;28.81;50.67;100085.88;4303026;33;34772;-67
2023/08/21 00:43:24;;;;;;;15.43;13.90;;;;;;;28.79;50.71;100086.16;4303210;33;33688;-67
2023/08/21 00:45:52;;;;;;;16.15;14.48;;;;;;;28.78;50.74;100075.44;4303069;33;34653;-67
2023/08/21 00:48:20;;;;;;;16.23;14.52;;;;;;;28.78;50.74;100083.66;4290023;33;33416;-68
2023/08/21 00:50:48;;;;;;;16.27;14.50;;;;;;;28.79;50.72;100093.56;4290084;33;33800;-68
2023/08/21 00:53:16;;;;;;;16.30;14.60;;;;;;;28.78;50.72;100094.66;4290088;33;34673;-67
2023/08/21 00:55:44;;;;;;;16.77;15.13;;;;;;;28.79;50.69;100099.06;4278106;33;34487;-67
2023/08/21 00:58:12;;;;;;;16.95;15.20;;;;;;;28.76;50.72;100089.38;4288959;33;34228;-68
2023/08/21 01:00:42;;;;;;;15.73;14.18;;;;;;;28.77;50.75;100095.72;4289921;33;33742;-67
2023/08/21 01:03:09;;;;;;;15.80;13.90;;;;;;;28.76;50.74;100088.56;4278009;33;33903;-67
2023/08/21 01:05:37;;;;;;;15.77;14.23;;;;;;;28.78;50.66;100091.91;4278002;33;34750;-67
2023/08/21 01:08:10;;;;;;;16.52;14.85;;;;;;;28.76;50.66;100086.66;4289972;33;35172;-67
2023/08/21 01:11:19;;;;;;;15.95;14.35;;;;;;;28.75;50.74;100084.16;4278408;33;33457;-68
2023/08/21 01:14:28;;;;;;;16.20;14.50;;;;;;;28.78;50.60;100087.25;4292098;33;34645;-67
2023/08/21 01:17:00;;;;;;;15.88;14.38;;;;;;;28.77;50.58;100093.78;4289911;33;33668;-68
2023/08/21 01:19:31;;;;;;;18.42;15.52;;;;;;;28.72;50.70;100096.47;4290261;33;33329;-67
2023/08/21 01:22:00;;;;;;;16.75;15.10;;;;;;;28.71;50.72;100095.66;4302784;33;33852;-68
2023/08/21 01:24:28;;;;;;;15.32;13.73;;;;;;;28.71;50.67;100101.13;4289840;33;33559;-69
2023/08/21 01:26:55;;;;;;;18.65;15.75;;;;;;;28.69;50.65;100095.09;4289893;33;34539;-67
2023/08/21 01:29:23;;;;;;;17.50;13.62;;;;;;;28.69;50.64;100103.31;4302854;33;33535;-68
2023/08/21 01:31:56;;;;;;;17.45;15.18;;;;;;;28.67;50.62;100094.50;4288733;33;33369;-68
2023/08/21 01:34:24;;;;;;;16.87;15.02;;;;;;;28.67;50.64;100097.25;4317310;33;33847;-67
2023/08/21 01:36:51;;;;;;;15.73;14.10;;;;;;;28.69;50.60;100097.00;4304061;33;33703;-68
2023/08/21 01:39:19;;;;;;;16.15;14.45;;;;;;;28.67;50.61;100097.25;4304154;33;34229;-67
2023/08/21 01:41:47;;;;;;;17.27;15.55;;;;;;;28.65;50.63;100096.69;4317258;33;34928;-68
2023/08/21 01:44:15;;;;;;;17.25;13.85;;;;;;;28.66;50.62;100105.75;4317072;33;33957;-67
2023/08/21 01:46:42;;;;;;;15.82;14.20;;;;;;;28.65;50.62;100102.16;4317204;33;33859;-68
2023/08/21 01:49:10;;;;;;;17.30;14.35;;;;;;;28.65;50.59;100106.84;4304125;33;34286;-68
2023/08/21 01:51:37;;;;;;;17.10;15.18;;;;;;;28.64;50.56;100106.00;4317103;33;33814;-68
2023/08/21 01:54:05;;;;;;;16.42;14.73;;;;;;;28.65;50.54;100104.09;4317236;33;33813;-70
2023/08/21 01:56:33;;;;;;;16.05;14.55;;;;;;;28.63;50.54;100109.84;4317003;33;33692;-68
2023/08/21 01:59:01;;;;;;;15.63;14.13;;;;;;;28.63;50.48;100109.84;4317018;33;33202;-69
2023/08/21 02:01:28;;;;;;;16.95;15.23;;;;;;;28.63;50.44;100109.84;4317226;33;32767;-67
2023/08/21 02:03:56;;;;;;;15.55;13.88;;;;;;;28.64;50.49;100118.91;4316787;33;33552;-67
2023/08/21 02:06:24;;;;;;;15.93;13.38;;;;;;;28.63;50.47;100114.47;4303787;33;33212;-67
2023/08/21 02:08:52;;;;;;;15.85;13.70;;;;;;;28.61;50.41;100114.75;4316941;33;34025;-67
2023/08/21 02:11:19;;;;;;;14.52;13.02;;;;;;;28.60;50.37;100115.81;4317107;33;33707;-68
2023/08/21 02:13:47;;;;;;;15.05;13.48;;;;;;;28.60;50.27;100118.56;4317019;33;35177;-69
2023/08/21 02:16:14;;;;;;;15.30;13.07;;;;;;;28.60;50.26;100120.50;4317056;33;34590;-68
2023/08/21 02:18:42;;;;;;;14.43;13.10;;;;;;;28.59;50.22;100118.84;4317042;33;34184;-67
2023/08/21 02:21:10;;;;;;;16.50;12.70;;;;;;;28.59;50.19;100113.34;4316978;33;33808;-68
2023/08/21 02:23:37;;;;;;;15.40;13.80;;;;;;;28.57;50.20;100115.50;4291943;33;33901;-67
2023/08/21 02:26:05;;;;;;;14.05;12.75;;;;;;;28.57;50.15;100113.59;4316908;33;34333;-69
2023/08/21 02:28:33;;;;;;;14.43;13.07;;;;;;;28.57;50.13;100107.25;4303789;33;33913;-67
2023/08/21 02:31:00;;;;;;;13.98;12.57;;;;;;;28.57;50.17;100110.00;4310954;33;33867;-67
2023/08/21 02:33:28;;;;;;;14.43;13.00;;;;;;;28.55;50.13;100113.03;4302210;33;33979;-70
2023/08/21 02:35:56;;;;;;;15.32;13.88;;;;;;;28.55;50.14;100110.28;4289118;33;34493;-68
2023/08/21 02:38:23;;;;;;;16.10;13.00;;;;;;;28.55;50.07;100107.53;4289258;33;33600;-67
2023/08/21 02:40:51;;;;;;;15.32;13.65;;;;;;;28.54;50.03;100111.37;4302139;33;34675;-70
2023/08/21 02:43:19;;;;;;;15.00;13.50;;;;;;;28.52;50.06;100109.94;4302146;33;33897;-69
2023/08/21 02:45:48;;;;;;;14.95;13.32;;;;;;;28.51;50.04;100108.28;4288669;33;33090;-67
2023/08/21 02:48:15;;;;;;;15.88;14.18;;;;;;;28.51;50.04;100111.84;4301860;33;32870;-68
2023/08/21 02:50:43;;;;;;;15.02;12.98;;;;;;;28.51;49.96;100111.03;4288931;33;33925;-68
2023/08/21 02:53:11;;;;;;;15.02;13.55;;;;;;;28.48;50.04;100107.69;4302042;33;34710;-68
2023/08/21 02:55:39;;;;;;;15.05;12.45;;;;;;;28.46;50.06;100109.03;4301876;33;33653;-67
2023/08/21 02:58:06;;;;;;;14.48;12.68;;;;;;;28.45;50.11;100102.72;4301852;33;33497;-67
2023/08/21 03:00:35;;;;;;;14.55;13.00;;;;;;;28.45;50.15;100105.47;4288888;33;33960;-67
2023/08/21 03:03:04;;;;;;;14.32;12.93;;;;;;;28.44;50.15;100102.97;4301798;33;34760;-68
2023/08/21 03:05:32;;;;;;;15.57;13.57;;;;;;;28.43;50.13;100102.13;4301716;33;34283;-68
2023/08/21 03:07:59;;;;;;;15.15;13.55;;;;;;;28.45;50.07;100107.38;4301855;33;33438;-68
2023/08/21 03:10:29;;;;;;;13.90;12.37;;;;;;;28.44;50.05;100105.69;4288559;33;34064;-70
2023/08/21 03:12:57;;;;;;;14.27;12.75;;;;;;;28.44;50.06;100102.97;4301835;33;34463;-68
2023/08/21 03:15:24;;;;;;;16.92;13.10;;;;;;;28.43;50.04;100102.13;4288564;33;32761;-69
2023/08/21 03:17:52;;;;;;;12.93;11.73;;;;;;;28.43;50.03;100095.81;4288460;33;34239;-68
2023/08/21 03:20:20;;;;;;;14.25;12.85;;;;;;;28.42;49.98;100097.72;4301898;33;33982;-69
2023/08/21 03:22:48;;;;;;;14.77;13.32;;;;;;;28.42;50.01;100097.72;4290466;33;33649;-67
2023/08/21 03:25:16;;;;;;;13.70;12.30;;;;;;;28.41;49.98;100104.31;4303652;33;33928;-68
2023/08/21 03:27:45;;;;;;;13.93;12.52;;;;;;;28.39;49.91;100106.47;4303764;33;33524;-68
2023/08/21 03:30:14;;;;;;;14.52;11.95;;;;;;;28.39;49.95;100111.13;4304853;33;33678;-68
2023/08/21 03:32:42;;;;;;;;;;;;;;;28.39;49.92;100102.88;4318485;33;33616;-69
2023/08/21 03:35:10;;;;;;;14.35;12.95;;;;;;;28.51;49.67;100105.53;4305275;33;33820;-68
2023/08/21 03:37:38;;;;;;;15.13;12.45;;;;;;;28.41;49.86;100115.28;4292823;33;33646;-71
2023/08/21 03:40:07;;;;;;;14.50;13.13;;;;;;;28.39;49.91;100111.13;4318021;33;34795;-68
2023/08/21 03:42:34;;;;;;;14.18;12.70;;;;;;;28.37;49.91;100116.03;4304887;33;34963;-68
2023/08/21 03:45:04;;;;;;;15.00;12.20;;;;;;;28.35;49.91;100118.19;4318237;33;33490;-70
2023/08/21 03:47:32;;;;;;;;;;;;;;;28.35;49.89;100115.44;4305675;33;33509;-70
2023/08/21 03:50:00;;;;;;;12.85;11.55;;;;;;;28.47;49.60;100118.94;4318467;33;34767;-68
2023/08/21 03:52:28;;;;;;;12.98;11.57;;;;;;;28.37;49.79;100121.53;4317921;33;34060;-70
2023/08/21 03:54:56;;;;;;;13.07;11.70;;;;;;;28.34;49.82;100119.25;4317980;33;33796;-69
2023/08/21 03:57:23;;;;;;;14.15;12.52;;;;;;;28.32;49.86;100113.19;4318066;33;34887;-70
2023/08/21 03:59:51;;;;;;;14.25;12.82;;;;;;;28.31;49.87;100108.81;4317963;33;33615;-69
2023/08/21 04:02:19;;;;;;;13.57;12.18;;;;;;;28.31;49.83;100114.28;4317925;33;34162;-70
2023/08/21 04:04:47;;;;;;;15.73;12.73;;;;;;;28.30;49.81;100112.59;4317979;33;34538;-70
2023/08/21 04:07:16;;;;;;;14.95;12.65;;;;;;;28.31;49.85;100106.06;4317846;33;34442;-67
2023/08/21 04:09:43;;;;;;;17.33;13.60;;;;;;;28.29;49.83;100111.78;4318019;33;34732;-68
2023/08/21 04:12:12;;;;;;;13.48;12.07;;;;;;;28.30;49.81;100115.34;4317955;33;34679;-69
2023/08/21 04:14:40;;;;;;;14.10;11.97;;;;;;;28.29;49.77;100113.69;4317870;33;33895;-68
2023/08/21 04:17:07;;;;;;;14.77;12.18;;;;;;;28.29;49.80;100113.69;4318253;33;33299;-69
2023/08/21 04:19:40;;;;;;;13.88;12.35;;;;;;;28.26;49.85;100111.44;4317860;33;33975;-69
2023/08/21 04:22:08;;;;;;;12.95;11.57;;;;;;;28.27;49.86;100113.12;4317862;33;33885;-69
2023/08/21 04:24:35;;;;;;;15.20;12.55;;;;;;;28.26;49.91;100114.19;4317993;33;34307;-68
2023/08/21 04:27:03;;;;;;;13.75;12.23;;;;;;;28.24;49.93;100119.94;4317911;33;33277;-69
2023/08/21 04:29:30;;;;;;;13.98;12.18;;;;;;;28.25;49.94;100118.00;4317729;33;33546;-70
2023/08/21 04:31:58;;;;;;;14.15;12.55;;;;;;;28.23;49.97;100116.38;4306180;33;33718;-70
2023/08/21 04:34:26;;;;;;;13.77;12.30;;;;;;;28.23;50.04;100121.84;4303631;33;34740;-68
2023/08/21 04:36:54;;;;;;;15.88;12.27;;;;;;;28.22;50.06;100122.09;4302994;33;33211;-68
2023/08/21 04:39:23;;;;;;;14.60;12.37;;;;;;;28.22;50.05;100125.69;4303433;33;33718;-68
2023/08/21 04:41:50;;;;;;;13.70;12.40;;;;;;;28.25;50.02;100129.00;4303161;33;33992;-68
2023/08/21 04:44:18;;;;;;;14.50;13.10;;;;;;;28.23;50.07;100137.47;4304120;33;34631;-68
2023/08/21 04:46:48;;;;;;;13.62;12.18;;;;;;;28.23;50.11;100130.09;4305133;33;33385;-68
2023/08/21 04:49:15;;;;;;;14.45;12.02;;;;;;;28.23;50.15;100127.34;4317696;33;33945;-69
2023/08/21 04:51:43;;;;;;;15.90;12.75;;;;;;;28.25;50.17;100137.22;4317668;33;33488;-67
2023/08/21 04:54:10;;;;;;;14.20;12.80;;;;;;;28.23;50.23;100138.31;4317701;33;34654;-68
2023/08/21 04:56:39;;;;;;;15.13;12.10;;;;;;;28.24;50.28;100136.41;4316708;33;33391;-69
2023/08/21 04:59:08;;;;;;;;;;;;;;;28.25;50.29;100134.47;4304343;33;33785;-68
2023/08/21 05:01:36;;;;;;;12.95;11.65;;;;;;;28.36;50.02;100141.84;4305987;33;34640;-70
2023/08/21 05:04:04;;;;;;;13.65;11.93;;;;;;;28.27;50.19;100138.66;4303253;33;33791;-70
2023/08/21 05:06:31;;;;;;;13.07;11.77;;;;;;;28.23;50.29;100143.81;4303300;33;33180;-69
2023/08/21 05:08:59;;;;;;;14.93;13.10;;;;;;;28.23;50.36;100142.97;4303105;33;33547;-68
2023/08/21 05:11:27;;;;;;;13.10;11.57;;;;;;;28.22;50.33;100139.41;4315813;33;34759;-68
2023/08/21 05:13:54;;;;;;;13.43;11.57;;;;;;;28.23;50.33;100146.53;4303005;33;33858;-68
2023/08/21 05:16:22;;;;;;;13.50;12.10;;;;;;;28.25;50.34;100140.78;4317842;33;34510;-68
2023/08/21 05:18:50;;;;;;;12.77;11.48;;;;;;;28.25;50.38;100142.72;4317645;33;34772;-69
2023/08/21 05:21:18;;;;;;;13.77;11.75;;;;;;;28.25;50.36;100146.28;4305951;33;33895;-68
2023/08/21 05:23:46;;;;;;;15.20;11.77;;;;;;;28.25;50.36;100146.28;4303026;33;34304;-68
2023/08/21 05:26:13;;;;;;;13.00;10.98;;;;;;;28.27;50.42;100143.31;4314231;33;34314;-68
2023/08/21 05:28:41;;;;;;;14.40;11.77;;;;;;;28.29;50.43;100146.63;4317529;33;34087;-68
2023/08/21 05:31:08;;;;;;;13.02;11.65;;;;;;;28.30;50.50;100145.53;4317520;33;33834;-68
2023/08/21 05:33:38;;;;;;;12.27;11.07;;;;;;;28.29;50.55;100152.94;4312513;33;33633;-68
2023/08/21 05:36:06;;;;;;;14.65;12.40;;;;;;;28.31;50.51;100148.03;4302802;33;34382;-68
2023/08/21 05:38:34;;;;;;;12.98;11.20;;;;;;;28.32;50.56;100151.63;4302783;33;33850;-68
2023/08/21 05:41:01;;;;;;;13.18;11.85;;;;;;;28.32;50.69;100151.63;4289545;33;33854;-69
2023/08/21 05:43:30;;;;;;;14.90;11.75;;;;;;;28.33;50.76;100156.84;4305265;33;34035;-69
2023/08/21 05:45:57;;;;;;;13.82;12.35;;;;;;;28.34;50.79;100169.50;4316821;33;33404;-68
2023/08/21 05:48:25;;;;;;;14.63;12.02;;;;;;;28.35;50.77;100164.84;4317405;33;34177;-68
2023/08/21 05:50:53;;;;;;;13.90;11.32;;;;;;;28.35;50.80;100168.44;4310669;33;34665;-68
2023/08/21 05:53:20;;;;;;;12.40;10.75;;;;;;;28.37;50.68;100166.28;4289999;33;33431;-68
2023/08/21 05:55:48;;;;;;;13.52;12.02;;;;;;;28.37;50.79;100166.28;4302616;33;33100;-68
2023/08/21 05:58:15;;;;;;;14.87;11.85;;;;;;;28.38;50.81;100167.94;4302839;33;34269;-69
2023/08/21 06:00:44;;;;;;;15.27;12.23;;;;;;;28.39;50.86;100171.50;4294000;33;34113;-68
2023/08/21 06:03:12;;;;;;;15.68;12.20;;;;;;;28.40;50.77;100173.19;4316978;33;33870;-68
2023/08/21 06:05:41;;;;;;;17.45;12.27;;;;;;;28.42;50.84;100176.50;4317399;33;34446;-68
2023/08/21 06:08:09;;;;;;;15.68;12.55;;;;;;;28.43;50.89;100178.16;4317122;33;33899;-69
2023/08/21 06:10:37;;;;;;;14.75;11.85;;;;;;;28.43;51.06;100175.41;4313178;33;33848;-68
2023/08/21 06:13:04;;;;;;;14.80;11.25;;;;;;;28.43;51.12;100172.66;4314900;33;33815;-68
2023/08/21 06:15:32;;;;;;;14.68;12.18;;;;;;;28.44;51.13;100168.84;4303731;33;33529;-69
2023/08/21 06:18:00;;;;;;;17.55;12.55;;;;;;;28.46;51.11;100180.41;4317349;33;34461;-68
2023/08/21 06:20:28;;;;;;;16.80;12.32;;;;;;;28.45;51.09;100171.34;4317052;33;34899;-67
2023/08/21 06:22:56;;;;;;;13.25;11.88;;;;;;;28.46;51.08;100170.25;4305919;33;33653;-68
2023/08/21 06:25:23;;;;;;;17.65;12.48;;;;;;;28.48;51.16;100180.97;4302495;33;33410;-68
2023/08/21 06:27:51;;;;;;;13.98;12.45;;;;;;;28.48;51.44;100179.06;4302332;33;34615;-68
2023/08/21 06:30:26;;;;;;;13.60;12.18;;;;;;;28.48;51.62;100181.81;4302271;33;33516;-67
2023/08/21 06:32:57;;;;;;;14.77;12.25;;;;;;;28.49;51.60;100177.13;4312535;33;33907;-68
2023/08/21 06:35:25;;;;;;;16.23;12.75;;;;;;;28.51;51.68;100182.41;4303981;33;34132;-69
2023/08/21 06:37:54;;;;;;;15.35;13.48;;;;;;;28.53;51.95;100181.06;4316944;33;33939;-68
2023/08/21 06:40:22;;;;;;;14.75;13.25;;;;;;;28.55;51.95;100186.31;4316881;33;34812;-67
2023/08/21 06:42:52;;;;;;;15.05;13.23;;;;;;;28.55;52.16;100184.41;4310558;33;34244;-68
2023/08/21 06:45:20;;;;;;;14.68;12.98;;;;;;;28.56;52.36;100180.56;4316635;33;33214;-69
2023/08/21 06:47:50;;;;;;;16.10;14.20;;;;;;;28.57;52.52;100179.47;4316561;33;33856;-68
2023/08/21 06:50:18;;;;;;;15.68;13.48;;;;;;;28.61;52.44;100188.88;4316462;33;34194;-68
2023/08/21 06:52:45;;;;;;;15.10;13.60;;;;;;;28.63;52.35;100173.00;4313726;33;34020;-69
2023/08/21 06:55:13;;;;;;;14.43;12.73;;;;;;;28.65;52.63;100186.47;4301966;33;33710;-68
2023/08/21 06:57:41;;;;;;;15.48;13.88;;;;;;;28.67;52.87;100190.59;4307155;33;33854;-68
2023/08/21 07:00:09;;;;;;;15.02;13.52;;;;;;;28.68;52.77;100183.22;4310399;33;33926;-68
2023/08/21 07:02:37;;;;;;;15.20;13.73;;;;;;;28.71;52.65;100185.44;4309104;33;33963;-68
2023/08/21 07:05:05;;;;;;;16.42;14.02;;;;;;;28.73;52.59;100184.13;4311254;33;33584;-68
2023/08/21 07:07:33;;;;;;;16.00;14.32;;;;;;;28.78;52.46;100179.78;4314075;33;33911;-68
2023/08/21 07:10:01;;;;;;;16.80;13.50;;;;;;;28.79;52.36;100184.19;4302863;33;34174;-68
2023/08/21 07:12:29;;;;;;;15.82;13.68;;;;;;;28.80;52.49;100180.34;4309971;33;33625;-67
2023/08/21 07:14:56;;;;;;;16.62;14.10;;;;;;;28.79;52.68;100182.25;4317544;33;33708;-68
2023/08/21 07:17:24;;;;;;;15.07;13.57;;;;;;;28.81;52.73;100180.09;4317365;33;33723;-70
2023/08/21 07:19:52;;;;;;;15.35;13.85;;;;;;;28.87;52.53;100178.25;4309616;33;33794;-69
2023/08/21 07:22:20;;;;;;;15.65;13.98;;;;;;;28.88;52.63;100178.00;4307053;33;34477;-71
2023/08/21 07:24:48;;;;;;;15.32;13.73;;;;;;;28.89;52.61;100173.34;4303340;33;33344;-67
2023/08/21 07:27:16;;;;;;;15.68;13.65;;;;;;;28.89;52.53;100176.91;4311156;33;33504;-68
2023/08/21 07:29:43;;;;;;;15.68;13.88;;;;;;;28.89;52.47;100174.16;4311698;33;33649;-68
2023/08/21 07:32:11;;;;;;;16.42;14.43;;;;;;;28.89;52.44;100173.34;4309693;33;33843;-69
2023/08/21 07:34:39;;;;;;;15.38;13.07;;;;;;;28.90;52.44;100169.50;4280048;33;34559;-68
2023/08/21 07:37:08;;;;;;;16.37;14.10;;;;;;;28.90;52.46;100169.50;4309988;33;33860;-69
2023/08/21 07:39:36;;;;;;;15.48;13.55;;;;;;;28.90;52.50;100175.81;4311644;33;34730;-70
2023/08/21 07:42:04;;;;;;;15.38;13.77;;;;;;;28.92;52.50;100175.59;4303253;33;34195;-69
2023/08/21 07:44:31;;;;;;;16.02;14.32;;;;;;;28.90;52.57;100178.56;4314746;33;33722;-66
2023/08/21 07:46:59;;;;;;;16.67;13.85;;;;;;;28.91;52.62;100179.37;4317935;33;34912;-67
2023/08/21 07:49:26;;;;;;;15.10;13.57;;;;;;;28.91;52.69;100185.75;4317929;33;35028;-67
2023/08/21 07:51:54;;;;;;;15.27;13.75;;;;;;;28.93;52.78;100185.47;4318088;33;33317;-68
2023/08/21 07:54:22;;;;;;;14.70;13.20;;;;;;;28.93;52.86;100182.72;4304667;33;34087;-67
2023/08/21 07:56:50;;;;;;;14.90;13.32;;;;;;;28.93;52.84;100189.06;4304619;33;33861;-70
2023/08/21 07:59:19;;;;;;;19.33;14.00;;;;;;;28.94;52.80;100187.97;4304853;33;33674;-67
2023/08/21 08:01:47;;;;;;;14.35;12.77;;;;;;;28.95;52.76;100186.06;4318304;33;33888;-67
2023/08/21 08:04:15;;;;;;;15.00;13.35;;;;;;;28.94;52.78;100187.13;4304913;33;33200;-68
2023/08/21 08:06:42;;;;;;;14.93;13.43;;;;;;;28.94;52.76;100187.97;4317840;33;34458;-67
2023/08/21 08:09:10;;;;;;;14.87;13.38;;;;;;;28.93;52.70;100185.47;4317996;33;33659;-66
2023/08/21 08:11:38;;;;;;;14.27;12.80;;;;;;;28.94;52.70;100187.97;4318016;33;33406;-67
2023/08/21 08:14:05;;;;;;;14.07;12.68;;;;;;;28.94;52.71;100181.62;4317992;33;33038;-67
2023/08/21 08:16:33;;;;;;;14.32;12.98;;;;;;;28.94;52.69;100189.87;4317889;33;34192;-67
2023/08/21 08:19:00;;;;;;;15.80;14.13;;;;;;;28.93;52.67;100179.97;4314751;33;34437;-67
2023/08/21 08:21:28;;;;;;;17.77;13.77;;;;;;;28.94;52.66;100185.22;4316841;33;33853;-67
2023/08/21 08:23:56;;;;;;;15.05;13.55;;;;;;;28.95;52.57;100184.16;4306192;33;34360;-68
2023/08/21 08:26:24;;;;;;;15.45;13.65;;;;;;;28.96;52.57;100185.84;4317642;33;34115;-67
2023/08/21 08:28:51;;;;;;;17.60;14.60;;;;;;;28.97;52.55;100187.50;4311207;33;34809;-70
2023/08/21 08:31:20;;;;;;;17.65;14.57;;;;;;;28.99;52.55;100184.47;4302568;33;34157;-67
2023/08/21 08:33:48;;;;;;;14.70;13.20;;;;;;;28.99;52.51;100184.47;4289793;33;34363;-67
2023/08/21 08:36:15;;;;;;;16.98;13.45;;;;;;;29.02;52.50;100183.16;4305729;33;35256;-67
2023/08/21 08:38:43;;;;;;;15.07;13.48;;;;;;;29.01;52.51;100195.25;4298419;33;33792;-66
2023/08/21 08:41:25;;;;;;;15.68;14.10;;;;;;;29.00;52.51;100188.88;4302990;33;33634;-70
2023/08/21 08:43:52;;;;;;;15.00;13.35;;;;;;;28.99;52.51;100192.72;4309300;33;33298;-66
2023/08/21 08:46:20;;;;;;;15.30;13.80;;;;;;;29.00;52.48;100193.56;4295752;33;33893;-67
2023/08/21 08:48:48;;;;;;;16.17;13.95;;;;;;;29.01;52.51;100192.50;4311838;33;33745;-69
2023/08/21 08:51:15;;;;;;;20.00;14.23;;;;;;;29.02;52.47;100196.87;4294677;33;34668;-67
2023/08/21 08:53:47;;;;;;;16.05;13.57;;;;;;;29.00;52.47;100191.62;4315908;33;34749;-68
2023/08/21 08:56:14;;;;;;;14.70;13.20;;;;;;;28.98;52.49;100194.66;4292406;33;33839;-67
2023/08/21 08:58:42;;;;;;;14.77;13.27;;;;;;;28.97;52.48;100198.47;4317174;33;34050;-66
2023/08/21 09:01:10;;;;;;;14.80;13.18;;;;;;;28.97;52.48;100198.47;4317240;33;34267;-67
2023/08/21 09:03:38;;;;;;;14.95;13.40;;;;;;;28.96;52.47;100199.56;4304445;33;33412;-66
2023/08/21 09:06:06;;;;;;;15.00;13.38;;;;;;;28.97;52.46;100198.47;4304214;33;33908;-66
2023/08/21 09:08:33;;;;;;;15.38;12.93;;;;;;;28.98;52.45;100200.13;4314545;33;34475;-66
2023/08/21 09:11:20;;;;;;;15.13;13.62;;;;;;;28.97;52.45;100195.72;4317088;33;35404;-66
2023/08/21 09:13:52;;;;;;;15.55;13.95;;;;;;;29.00;52.51;100199.87;4306084;33;33022;-66
2023/08/21 09:16:23;;;;;;;14.95;13.27;;;;;;;29.03;52.49;100195.81;4317266;33;34829;-70
2023/08/21 09:18:56;;;;;;;14.85;13.27;;;;;;;29.03;52.51;100198.56;4303311;33;33886;-69
2023/08/21 09:21:25;;;;;;;13.82;12.37;;;;;;;29.02;52.52;100197.72;4292344;33;33826;-66
2023/08/21 09:23:58;;;;;;;15.13;13.52;;;;;;;29.02;52.49;100192.22;4303950;33;34662;-69
2023/08/21 09:26:26;;;;;;;15.40;13.00;;;;;;;29.05;52.49;100190.88;4317195;33;33098;-69
2023/08/21 09:29:07;;;;;;;14.55;12.95;;;;;;;29.05;52.48;100194.47;4303454;33;33792;-69
2023/08/21 09:31:40;;;;;;;13.82;12.43;;;;;;;29.05;52.50;100186.22;4304804;33;34157;-67
2023/08/21 09:34:09;;;;;;;14.63;13.07;;;;;;;29.06;52.45;100190.63;4303644;33;33039;-67
2023/08/21 09:36:36;;;;;;;13.35;11.88;;;;;;;29.06;52.46;100176.91;4303854;33;33549;-66
2023/08/21 09:39:06;;;;;;;14.43;12.63;;;;;;;29.06;52.47;100178.81;4291854;33;33985;-65
2023/08/21 09:41:34;;;;;;;13.98;12.45;;;;;;;29.07;52.45;100178.56;4316658;33;33638;-66
2023/08/21 09:44:01;;;;;;;14.52;12.93;;;;;;;29.09;52.43;100178.28;4316863;33;33513;-66
2023/08/21 09:46:29;;;;;;;14.73;12.93;;;;;;;29.09;52.42;100175.53;4303312;33;33464;-66
2023/08/21 09:48:56;;;;;;;14.00;12.60;;;;;;;29.08;52.41;100174.72;4316962;33;33978;-68
2023/08/21 09:51:24;;;;;;;14.30;12.88;;;;;;;29.09;52.40;100175.53;4316555;33;33934;-68
2023/08/21 09:53:51;;;;;;;15.27;13.38;;;;;;;29.09;52.37;100168.12;4303664;33;32985;-69
2023/08/21 09:56:19;;;;;;;14.02;12.60;;;;;;;29.09;52.37;100165.38;4300970;33;83853;-67
2023/08/21 09:58:47;;;;;;;15.07;12.98;;;;;;;29.11;52.32;100167.88;4316397;33;34794;-66
2023/08/21 10:01:15;;;;;;;15.25;12.85;;;;;;;29.10;52.33;100168.94;4303366;33;34530;-65
2023/08/21 10:03:47;;;;;;;13.62;12.32;;;;;;;29.11;52.29;100165.97;4291516;33;33822;-66
2023/08/21 10:06:18;;;;;;;15.35;12.13;;;;;;;29.11;52.29;100154.97;4292482;33;33826;-65
2023/08/21 10:08:52;;;;;;;14.70;12.80;;;;;;;29.11;52.31;100148.66;4303515;33;33650;-66
2023/08/21 10:11:20;;;;;;;16.05;12.90;;;;;;;29.10;52.29;100141.47;4291672;33;33868;-68
2023/08/21 10:13:48;;;;;;;14.15;12.73;;;;;;;29.10;52.27;100139.59;4303409;33;34511;-65
2023/08/21 10:16:16;;;;;;;14.63;13.07;;;;;;;29.11;52.25;100133.00;4279549;33;32777;-66
2023/08/21 10:18:47;;;;;;;14.07;12.68;;;;;;;29.10;52.28;100155.22;4316556;33;34614;-68
2023/08/21 10:21:17;;;;;;;13.80;12.43;;;;;;;29.11;52.31;100143.16;4303518;33;33590;-66
2023/08/21 10:23:48;;;;;;;13.10;11.80;;;;;;;29.11;52.30;100141.25;4291600;33;33090;-66
2023/08/21 10:26:19;;;;;;;12.85;11.55;;;;;;;29.14;52.29;100142.63;4303221;33;33570;-66
2023/08/21 10:28:53;;;;;;;13.60;11.88;;;;;;;29.12;52.34;100140.16;4316451;33;33682;-67
2023/08/21 10:31:38;;;;;;;14.25;12.80;;;;;;;29.14;52.29;100140.69;4316293;33;33400;-66
2023/08/21 10:34:06;;;;;;;12.57;11.27;;;;;;;29.17;52.28;100134.72;4316373;33;33554;-66
2023/08/21 10:36:37;;;;;;;13.30;11.88;;;;;;;29.15;52.33;100136.91;4316089;33;34015;-69
2023/08/21 10:39:12;;;;;;;17.90;11.98;;;;;;;29.15;52.34;100131.41;4302757;33;33042;-69
2023/08/21 10:41:40;;;;;;;13.25;11.95;;;;;;;29.17;52.30;100134.72;4303106;33;33468;-67
2023/08/21 10:44:08;;;;;;;12.52;11.30;;;;;;;29.17;52.26;100128.37;4302941;33;33422;-68
2023/08/21 10:46:51;;;;;;;13.77;12.32;;;;;;;29.16;52.20;100130.31;4316101;33;33853;-65
2023/08/21 10:49:19;;;;;;;13.23;11.80;;;;;;;29.21;52.14;100126.78;4316168;33;34179;-69
2023/08/21 10:51:46;;;;;;;15.77;12.37;;;;;;;29.18;52.11;100125.37;4316382;33;33826;-65
2023/08/21 10:54:14;;;;;;;14.90;13.38;;;;;;;29.20;52.08;100125.97;4303140;33;33802;-66
2023/08/21 10:56:42;;;;;;;14.93;12.45;;;;;;;29.21;52.04;100135.03;4316270;33;33489;-66
2023/08/21 10:59:10;;;;;;;12.45;11.25;;;;;;;29.20;52.03;100123.22;4316678;33;33589;-66
2023/08/21 11:01:46;;;;;;;13.27;11.95;;;;;;;29.20;52.01;100116.88;4316457;33;34097;-66
2023/08/21 11:04:14;;;;;;;14.40;12.90;;;;;;;29.21;51.88;100116.62;4311430;33;33645;-67
2023/08/21 11:06:42;;;;;;;14.43;12.25;;;;;;;29.21;51.87;100111.13;4308624;33;34015;-70
2023/08/21 11:09:13;;;;;;;13.02;11.73;;;;;;;29.21;51.88;100110.28;4300628;33;34756;-72
2023/08/21 11:11:43;;;;;;;15.32;12.00;;;;;;;29.21;51.93;100110.28;4308542;33;34439;-66
2023/08/21 11:14:11;;;;;;;13.57;12.18;;;;;;;29.21;51.94;100130.34;4307922;33;33434;-66
2023/08/21 11:16:39;;;;;;;12.43;11.23;;;;;;;29.23;51.90;100121.84;4302366;33;33406;-67